Time;durP1;ratioP1;P1;durP2;ratioP2;P2;SDS_P1;SDS_P2;PMS_P1;PMS_P2;Temp;Humidity;BMP_temperature;BMP_pressure;BME280_temperature;BME280_humidity;BME280_pressure;Samples;Min_cycle;Max_cycle;Signal;HPM_P1;HPM_P2
2022/09/29 00:00:45;;;;;;;;;;;4.60;99.90;;;;;;5028710;28;19931;-90
2022/09/29 00:03:18;;;;;;;;;;;6.90;99.90;;;;;;5030898;28;19925;-89
2022/09/29 00:05:48;;;;;;;;;;;7.50;99.90;;;;;;5031347;28;20913;-89
2022/09/29 00:08:23;;;;;;;;;;;5.80;99.90;;;;;;5018138;28;19929;-89
2022/09/29 00:10:51;;;;;;;;;;;5.50;99.90;;;;;;5034989;28;20284;-89
2022/09/29 00:13:20;;;;;;;;;;;5.30;99.90;;;;;;5016820;28;19939;-90
2022/09/29 00:15:56;;;;;;;;;;;4.70;99.90;;;;;;5028596;28;19925;-89
2022/09/29 00:18:30;;;;;;;;;;;5.90;99.90;;;;;;5036985;28;19925;-89
2022/09/29 00:21:13;;;;;;;;;;;6.40;99.90;;;;;;5020431;28;19932;-88
2022/09/29 00:23:42;;;;;;;;;;;7.30;99.90;;;;;;5024863;28;19976;-90
2022/09/29 00:26:21;;;;;;;;;;;5.90;99.90;;;;;;5036332;28;19925;-89
2022/09/29 00:28:51;;;;;;;;;;;5.50;99.90;;;;;;5029056;28;19951;-89
2022/09/29 00:31:37;;;;;;;;;;;4.30;99.90;;;;;;5035246;28;19925;-89
2022/09/29 00:34:05;;;;;;;;;;;5.50;99.90;;;;;;4993357;28;20373;-89
2022/09/29 00:36:39;;;;;;;;;;;5.90;99.90;;;;;;5015537;28;20011;-89
2022/09/29 00:42:06;;;;;;;;;;;6.50;99.90;;;;;;5036593;28;20329;-89
2022/09/29 00:44:52;;;;;;;;;;;5.70;99.90;;;;;;5020540;28;19924;-89
2022/09/29 00:47:23;;;;;;;;;;;5.50;99.90;;;;;;5018117;28;19971;-89
2022/09/29 00:50:10;;;;;;;;;;;4.40;99.90;;;;;;5036640;28;19972;-88
2022/09/29 00:52:53;;;;;;;;;;;;;;;;;;;;;
2022/09/29 00:55:24;;;;;;;;;;;5.50;99.90;;;;;;5040927;28;19929;-89
2022/09/29 00:57:58;;;;;;;;;;;7.20;99.90;;;;;;5039419;28;19931;-89
2022/09/29 01:00:34;;;;;;;;;;;5.50;99.90;;;;;;5018892;28;20046;-89
2022/09/29 01:03:23;;;;;;;;;;;4.80;99.90;;;;;;5018343;28;20393;-88
2022/09/29 01:06:15;;;;;;;;;;;5.50;99.90;;;;;;5026465;28;19924;-89
2022/09/29 01:08:44;;;;;;;;;;;5.30;99.90;;;;;;5019779;28;20281;-88
2022/09/29 01:11:15;;;;;;;;;;;5.50;99.90;;;;;;5035989;28;19978;-89
2022/09/29 01:13:48;;;;;;;;;;;7.00;99.90;;;;;;5050621;28;19925;-88
2022/09/29 01:16:24;;;;;;;;;;;7.10;99.90;;;;;;5034249;28;19931;-89
2022/09/29 01:19:09;;;;;;;;;;;7.20;99.90;;;;;;5021084;28;20368;-89
2022/09/29 01:21:38;;;;;;;;;;;3.80;99.90;;;;;;5022719;28;19925;-88
2022/09/29 01:24:06;;;;;;;;;;;7.00;99.90;;;;;;5019361;28;19925;-89
2022/09/29 01:26:53;;;;;;;;;;;5.50;99.90;;;;;;5031994;28;19926;-88
2022/09/29 01:29:22;;;;;;;;;;;5.20;99.90;;;;;;5026177;28;19978;-89
2022/09/29 01:32:03;;;;;;;;;;;5.60;99.90;;;;;;5020027;28;19960;-89
2022/09/29 01:34:49;;;;;;;;;;;5.40;99.90;;;;;;5041839;28;20317;-89
2022/09/29 01:37:40;;;;;;;;;;;5.20;99.90;;;;;;5015648;28;19925;-89
2022/09/29 01:40:34;;;;;;;;;;;5.10;99.90;;;;;;5019094;28;19925;-88
2022/09/29 01:43:09;;;;;;;;;;;5.10;99.90;;;;;;5033409;28;20357;-88
2022/09/29 01:45:41;;;;;;;;;;;4.60;99.90;;;;;;5044611;28;19931;-89
2022/09/29 01:48:29;;;;;;;;;;;4.40;99.90;;;;;;5035192;28;19925;-89
2022/09/29 01:51:09;;;;;;;;;;;5.30;99.90;;;;;;4998748;28;19948;-88
2022/09/29 01:54:02;;;;;;;;;;;5.20;99.90;;;;;;5035345;28;20363;-88
2022/09/29 01:56:42;;;;;;;;;;;6.90;99.90;;;;;;5035346;28;19976;-88
2022/09/29 01:59:16;;;;;;;;;;;5.10;99.90;;;;;;5045145;28;19932;-89
2022/09/29 02:01:43;;;;;;;;;;;5.20;99.90;;;;;;5034049;28;19968;-88
2022/09/29 02:04:28;;;;;;;;;;;;;;;;;;;;;
2022/09/29 02:07:07;;;;;;;;;;;5.10;99.90;;;;;;5044377;28;20003;-88
2022/09/29 02:09:38;;;;;;;;;;;5.20;99.90;;;;;;5018164;28;19925;-88
2022/09/29 02:12:10;;;;;;;;;;;6.70;99.90;;;;;;5034420;28;19925;-88
2022/09/29 02:14:46;;;;;;;;;;;5.10;99.90;;;;;;5048090;28;19935;-89
2022/09/29 02:17:26;;;;;;;;;;;6.80;99.90;;;;;;5034199;28;19932;-88
2022/09/29 02:19:57;;;;;;;;;;;5.80;99.90;;;;;;5035196;28;20335;-89
2022/09/29 02:22:33;;;;;;;;;;;5.20;99.90;;;;;;5019129;28;19982;-89
2022/09/29 02:25:17;;;;;;;;;;;5.40;99.90;;;;;;5020548;28;19979;-88
2022/09/29 02:27:52;;;;;;;;;;;5.20;99.90;;;;;;5034912;28;19951;-89
2022/09/29 02:30:20;;;;;;;;;;;4.80;99.90;;;;;;5041277;28;19944;-90
2022/09/29 02:32:59;;;;;;;;;;;5.70;99.90;;;;;;5056775;28;19912;-89
2022/09/29 02:35:34;;;;;;;;;;;5.00;99.90;;;;;;5058914;28;19962;-89
2022/09/29 02:38:00;;;;;;;;;;;6.60;99.90;;;;;;5055622;28;19913;-89
2022/09/29 02:40:54;;;;;;;;;;;6.60;99.90;;;;;;5023847;28;19947;-90
2022/09/29 02:43:25;;;;;;;;;;;5.00;99.90;;;;;;5019244;28;20336;-88
2022/09/29 02:46:04;;;;;;;;;;;6.30;99.90;;;;;;5057764;28;20293;-89
2022/09/29 02:48:42;;;;;;;;;;;3.80;99.90;;;;;;5058931;28;19929;-89
2022/09/29 02:51:11;;;;;;;;;;;4.90;99.90;;;;;;5027140;28;19956;-89
2022/09/29 02:53:57;;;;;;;;;;;4.90;99.90;;;;;;5042910;28;20369;-89
2022/09/29 02:56:29;;;;;;;;;;;4.90;99.90;;;;;;5042236;28;20291;-89
2022/09/29 02:59:00;;;;;;;;;;;3.60;99.90;;;;;;5030897;28;20258;-89
2022/09/29 03:01:29;;;;;;;;;;;3.70;99.90;;;;;;5061658;28;19924;-89
2022/09/29 03:04:12;;;;;;;;;;;;;;;;;;;;;
2022/09/29 03:06:51;;;;;;;;;;;5.00;99.90;;;;;;5014254;28;20468;-89
2022/09/29 03:09:22;;;;;;;;;;;4.90;99.90;;;;;;5029970;28;19940;-89
2022/09/29 03:12:08;;;;;;;;;;;3.80;99.90;;;;;;5036691;28;19924;-90
2022/09/29 03:14:57;;;;;;;;;;;4.80;99.90;;;;;;5018005;28;19932;-89
2022/09/29 03:17:31;;;;;;;;;;;6.60;99.90;;;;;;5034731;28;20289;-89
2022/09/29 03:20:10;;;;;;;;;;;;;;;;;;;;;
2022/09/29 03:22:42;;;;;;;;;;;6.30;99.90;;;;;;5038463;28;20393;-89
2022/09/29 03:25:10;;;;;;;;;;;4.80;99.90;;;;;;5020096;28;20004;-89
2022/09/29 03:27:39;;;;;;;;;;;4.60;99.90;;;;;;5030624;28;20024;-89
2022/09/29 03:30:14;;;;;;;;;;;6.10;99.90;;;;;;5018135;28;19995;-89
2022/09/29 03:33:06;;;;;;;;;;;4.60;99.90;;;;;;5033253;28;20008;-89
2022/09/29 03:35:31;;;;;;;;;;;6.30;99.90;;;;;;5035295;28;19929;-88
2022/09/29 03:37:58;;;;;;;;;;;6.30;99.90;;;;;;5022313;28;19994;-89
2022/09/29 03:40:35;;;;;;;;;;;3.20;99.90;;;;;;5020080;28;19955;-89
2022/09/29 03:43:16;;;;;;;;;;;4.70;99.90;;;;;;5052178;28;19925;-89
2022/09/29 03:45:49;;;;;;;;;;;6.50;99.90;;;;;;5029419;28;19931;-89
2022/09/29 03:48:17;;;;;;;;;;;4.60;99.90;;;;;;5039113;28;19924;-89
2022/09/29 03:50:56;;;;;;;;;;;6.10;99.90;;;;;;5021406;28;19986;-90
2022/09/29 03:53:32;;;;;;;;;;;4.50;99.90;;;;;;5002846;28;19929;-89
2022/09/29 03:55:58;;;;;;;;;;;4.80;99.90;;;;;;5029268;28;19925;-89
2022/09/29 03:58:26;;;;;;;;;;;4.60;99.90;;;;;;5019667;28;19931;-89
2022/09/29 04:01:08;;;;;;;;;;;6.30;99.90;;;;;;5030572;28;19978;-89
2022/09/29 04:03:41;;;;;;;;;;;6.10;99.90;;;;;;5054593;28;19981;-89
2022/09/29 04:08:58;;;;;;;;;;;4.40;99.90;;;;;;5038218;28;19983;-89
2022/09/29 04:11:26;;;;;;;;;;;5.90;99.90;;;;;;5029128;28;19972;-89
2022/09/29 04:14:15;;;;;;;;;;;6.00;99.90;;;;;;5041014;28;19948;-89
2022/09/29 04:16:46;;;;;;;;;;;6.50;99.90;;;;;;5017166;28;19932;-89
2022/09/29 04:19:29;;;;;;;;;;;6.20;99.90;;;;;;5018234;28;19925;-89
2022/09/29 04:22:04;;;;;;;;;;;4.00;99.90;;;;;;5020343;28;19966;-89
2022/09/29 04:24:53;;;;;;;;;;;4.40;99.90;;;;;;5039892;28;19925;-90
2022/09/29 04:27:22;;;;;;;;;;;3.30;99.90;;;;;;5013690;28;19929;-88
2022/09/29 04:29:51;;;;;;;;;;;6.10;99.90;;;;;;5033299;28;19991;-89
2022/09/29 04:32:26;;;;;;;;;;;4.20;99.90;;;;;;5047379;28;19925;-89
2022/09/29 04:34:57;;;;;;;;;;;4.30;99.90;;;;;;5037172;28;19924;-90
2022/09/29 04:37:33;;;;;;;;;;;5.60;99.90;;;;;;5025739;28;19964;-89
2022/09/29 04:42:57;;;;;;;;;;;4.20;99.90;;;;;;5035889;28;19924;-89
2022/09/29 04:45:43;;;;;;;;;;;4.60;99.90;;;;;;5033593;28;20369;-90
2022/09/29 04:48:19;;;;;;;;;;;4.30;99.90;;;;;;5016690;28;20439;-89
2022/09/29 04:50:50;;;;;;;;;;;4.20;99.90;;;;;;5005072;28;20387;-89
2022/09/29 04:53:20;;;;;;;;;;;4.30;99.90;;;;;;5036548;28;19925;-89
2022/09/29 04:55:56;;;;;;;;;;;4.30;99.90;;;;;;5019803;28;19932;-89
2022/09/29 04:58:27;;;;;;;;;;;5.70;99.90;;;;;;5036846;28;20002;-89
2022/09/29 05:01:02;;;;;;;;;;;;;;;;;;;;;
2022/09/29 05:06:17;;;;;;;;;;;5.40;99.90;;;;;;5018239;28;19955;-89
2022/09/29 05:08:45;;;;;;;;;;;5.40;99.90;;;;;;5032823;28;19955;-89
2022/09/29 05:11:13;;;;;;;;;;;4.20;99.90;;;;;;5018196;28;19932;-89
2022/09/29 05:13:46;;;;;;;;;;;3.70;99.90;;;;;;5038839;28;20377;-89
2022/09/29 05:16:18;;;;;;;;;;;3.90;99.90;;;;;;5036921;28;20013;-89
2022/09/29 05:18:54;;;;;;;;;;;3.30;99.90;;;;;;5027065;28;19931;-89
2022/09/29 05:21:22;;;;;;;;;;;5.70;99.90;;;;;;5036335;28;19925;-89
2022/09/29 05:24:08;;;;;;;;;;;4.00;99.90;;;;;;5019372;28;19925;-89
2022/09/29 05:26:50;;;;;;;;;;;;;;;;;;;;;
2022/09/29 05:29:28;;;;;;;;;;;;;;;;;;;;;
2022/09/29 05:31:54;;;;;;;;;;;4.10;99.90;;;;;;5030394;28;19933;-89
2022/09/29 05:34:38;;;;;;;;;;;;;;;;;;;;;
2022/09/29 05:37:17;;;;;;;;;;;2.60;99.90;;;;;;5034513;28;19924;-89
2022/09/29 05:39:54;;;;;;;;;;;3.90;99.90;;;;;;5034293;28;20012;-89
2022/09/29 05:45:16;;;;;;;;;;;4.10;99.90;;;;;;5021322;28;19929;-90
2022/09/29 05:51:34;;;;;;;;;;;4.10;99.90;;;;;;5033811;28;19925;-87
2022/09/29 05:54:01;;;;;;;;;;;3.80;99.90;;;;;;5001747;28;19929;-87
2022/09/29 05:56:42;;;;;;;;;;;5.60;99.90;;;;;;5034938;28;19925;-88
2022/09/29 06:02:12;;;;;;;;;;;;;;;;;;;;;
2022/09/29 06:04:48;;;;;;;;;;;4.30;99.90;;;;;;5033015;28;19947;-88
2022/09/29 06:07:13;;;;;;;;;;;4.30;99.90;;;;;;5033855;28;19925;-87
2022/09/29 06:09:41;;;;;;;;;;;5.80;99.90;;;;;;5032841;28;19932;-89
2022/09/29 06:12:17;;;;;;;;;;;4.20;99.90;;;;;;5032372;28;19933;-87
2022/09/29 06:15:00;;;;;;;;;;;4.10;99.90;;;;;;5016574;28;19964;-88
2022/09/29 06:17:34;;;;;;;;;;;2.90;99.90;;;;;;5037399;28;19931;-89
2022/09/29 06:20:30;;;;;;;;;;;;;;;;;;;;;
2022/09/29 06:23:09;;;;;;;;;;;4.20;99.90;;;;;;5023583;28;19936;-88
2022/09/29 06:29:01;;;;;;;;;;;3.20;99.90;;;;;;5055720;28;19930;-88
2022/09/29 06:31:35;;;;;;;;;;;6.00;99.90;;;;;;5032296;28;19933;-88
2022/09/29 06:37:45;;;;;;;;;;;;;;;;;;;;;
2022/09/29 06:56:21;;;;;;;;;;;;;;;;;;;;;
2022/09/29 06:59:07;;;;;;;;;;;4.60;99.90;;;;;;4974302;28;20322;-90
2022/09/29 07:01:56;;;;;;;;;;;4.90;99.90;;;;;;4974992;28;19925;-91
2022/09/29 07:05:00;;;;;;;;;;;4.40;99.90;;;;;;4963299;28;20381;-89
2022/09/29 07:07:56;;;;;;;;;;;5.90;99.90;;;;;;4977216;28;19925;-92
2022/09/29 07:14:36;;;;;;;;;;;;;;;;;;;;;
2022/09/29 07:16:54;;;;;;;;;;;4.40;99.90;;;;;;4993534;28;19975;-84
2022/09/29 07:19:43;;;;;;;;;;;5.00;99.90;;;;;;5042971;28;19932;-86
2022/09/29 07:22:19;;;;;;;;;;;5.60;99.90;;;;;;5010611;28;19940;-87
2022/09/29 07:24:52;;;;;;;;;;;5.30;99.90;;;;;;5039911;28;19937;-87
2022/09/29 07:27:28;;;;;;;;;;;5.10;99.90;;;;;;5021304;28;20000;-87
2022/09/29 07:29:56;;;;;;;;;;;5.30;99.90;;;;;;5025790;28;19935;-87
2022/09/29 07:32:22;;;;;;;;;;;6.70;99.90;;;;;;5025326;28;19924;-88
2022/09/29 07:35:06;;;;;;;;;;;4.40;99.90;;;;;;5045100;28;19978;-89
2022/09/29 07:37:34;;;;;;;;;;;5.30;99.90;;;;;;5019757;28;19924;-87
2022/09/29 07:40:05;;;;;;;;;;;5.90;99.90;;;;;;5022115;28;20495;-87
2022/09/29 07:42:54;;;;;;;;;;;4.30;99.90;;;;;;5045083;28;19994;-87
2022/09/29 07:45:22;;;;;;;;;;;7.10;99.90;;;;;;5037834;28;19929;-86
2022/09/29 07:47:53;;;;;;;;;;;5.70;99.90;;;;;;5018088;28;20348;-86
2022/09/29 07:50:21;;;;;;;;;;;4.70;99.90;;;;;;5039026;28;19929;-86
2022/09/29 07:52:51;;;;;;;;;;;7.60;99.90;;;;;;5034633;28;19925;-86
2022/09/29 07:55:20;;;;;;;;;;;6.20;99.90;;;;;;5016210;28;19972;-87
2022/09/29 07:57:51;;;;;;;;;;;7.10;99.90;;;;;;5041934;28;19925;-86
2022/09/29 08:00:17;;;;;;;;;;;6.20;99.90;;;;;;5018971;28;19928;-87
2022/09/29 08:02:52;;;;;;;;;;;;;;;;;;;;;
2022/09/29 08:05:18;;;;;;;;;;;8.20;99.90;;;;;;5035589;28;20002;-87
2022/09/29 08:07:51;;;;;;;;;;;6.70;99.90;;;;;;5023038;28;19979;-87
2022/09/29 08:10:20;;;;;;;;;;;6.90;99.90;;;;;;5018068;28;19970;-86
2022/09/29 08:13:06;;;;;;;;;;;6.90;99.90;;;;;;5040482;28;19925;-89
2022/09/29 08:16:10;;;;;;;;;;;7.00;99.90;;;;;;5039957;28;19932;-92
2022/09/29 08:18:38;;;;;;;;;;;8.00;99.90;;;;;;5040894;28;19925;-88
2022/09/29 08:21:14;;;;;;;;;;;7.40;99.90;;;;;;5021064;28;19939;-88
2022/09/29 08:24:18;;;;;;;;;;;7.50;99.90;;;;;;5037677;28;20509;-88
2022/09/29 08:26:55;;;;;;;;;;;8.50;99.90;;;;;;5036787;28;20460;-87
2022/09/29 08:29:31;;;;;;;;;;;7.50;99.90;;;;;;5026871;28;19933;-88
2022/09/29 08:32:20;;;;;;;;;;;7.70;99.90;;;;;;5004263;28;20290;-88
2022/09/29 08:34:51;;;;;;;;;;;7.80;99.90;;;;;;5015024;28;19948;-88
2022/09/29 08:37:22;;;;;;;;;;;8.20;99.90;;;;;;4992401;28;19936;-88
2022/09/29 08:39:59;;;;;;;;;;;7.30;99.90;;;;;;4997756;28;19989;-89
2022/09/29 08:42:56;;;;;;;;;;;7.30;99.90;;;;;;5023011;28;19925;-88
2022/09/29 08:45:47;;;;;;;;;;;;;;;;;;;;;
2022/09/29 08:48:44;;;;;;;;;;;8.40;99.90;;;;;;5020686;28;19940;-90
2022/09/29 08:51:34;;;;;;;;;;;;;;;;;;;;;
2022/09/29 08:54:08;;;;;;;;;;;8.50;99.90;;;;;;5010265;28;19926;-88
2022/09/29 08:56:47;;;;;;;;;;;;;;;;;;;;;
2022/09/29 08:59:26;;;;;;;;;;;;;;;;;;;;;
2022/09/29 09:02:20;;;;;;;;;;;8.90;99.90;;;;;;5010225;28;20036;-87
2022/09/29 09:04:50;;;;;;;;;;;8.10;99.90;;;;;;5009495;28;19933;-90
2022/09/29 09:07:38;;;;;;;;;;;10.60;99.90;;;;;;5025132;28;19925;-89
2022/09/29 09:10:18;;;;;;;;;;;9.30;99.90;;;;;;5042961;28;19926;-90
2022/09/29 09:12:54;;;;;;;;;;;8.60;99.90;;;;;;4995231;28;19933;-89
2022/09/29 09:15:35;;;;;;;;;;;9.70;99.90;;;;;;5010544;28;20392;-88
2022/09/29 09:18:46;;;;;;;;;;;9.90;99.90;;;;;;5010758;28;19991;-89
2022/09/29 09:21:35;;;;;;;;;;;9.90;99.90;;;;;;4975107;28;20243;-90
2022/09/29 09:24:27;;;;;;;;;;;10.00;99.90;;;;;;5008165;28;20286;-91
2022/09/29 09:26:57;;;;;;;;;;;8.90;99.90;;;;;;5001640;28;20016;-88
2022/09/29 09:29:28;;;;;;;;;;;10.10;99.90;;;;;;5004474;28;20118;-89
2022/09/29 09:32:31;;;;;;;;;;;;;;;;;;;;;
2022/09/29 09:35:00;;;;;;;;;;;10.40;99.90;;;;;;5031243;28;19929;-88
2022/09/29 09:37:43;;;;;;;;;;;10.50;99.90;;;;;;5052720;28;19925;-87
2022/09/29 09:40:19;;;;;;;;;;;9.90;99.90;;;;;;5036465;28;19967;-88
2022/09/29 09:43:14;;;;;;;;;;;10.70;99.90;;;;;;5032975;28;19935;-90
2022/09/29 09:46:18;;;;;;;;;;;;;;;;;;;;;
2022/09/29 09:49:01;;;;;;;;;;;;;;;;;;;;;
2022/09/29 09:52:00;;;;;;;;;;;11.10;99.90;;;;;;5045589;28;20020;-87
2022/09/29 09:54:40;;;;;;;;;;;11.10;99.90;;;;;;5018857;28;20381;-88
2022/09/29 09:57:42;;;;;;;;;;;;;;;;;;;;;
2022/09/29 10:00:16;;;;;;;;;;;11.00;99.90;;;;;;5031333;28;19932;-89
2022/09/29 10:02:52;;;;;;;;;;;11.60;99.90;;;;;;5042143;28;19978;-89
2022/09/29 10:05:44;;;;;;;;;;;11.50;99.90;;;;;;5032643;28;19933;-88
2022/09/29 10:08:28;;;;;;;;;;;11.80;99.90;;;;;;5030006;28;19979;-87
2022/09/29 10:11:03;;;;;;;;;;;10.70;99.90;;;;;;5029063;28;20488;-88
2022/09/29 10:13:54;;;;;;;;;;;;;;;;;;;;;
2022/09/29 10:16:44;;;;;;;;;;;;;;;;;;;;;
2022/09/29 10:19:39;;;;;;;;;;;11.50;99.90;;;;;;5035268;28;20407;-91
2022/09/29 10:22:31;;;;;;;;;;;;;;;;;;;;;
2022/09/29 10:25:23;;;;;;;;;;;12.20;99.90;;;;;;5036613;28;19972;-89
2022/09/29 10:28:20;;;;;;;;;;;12.00;99.90;;;;;;5037490;28;19925;-90
2022/09/29 10:31:02;;;;;;;;;;;;;;;;;;;;;
2022/09/29 10:33:36;;;;;;;;;;;13.60;99.90;;;;;;5014541;28;20007;-91
2022/09/29 10:36:20;;;;;;;;;;;;;;;;;;;;;
2022/09/29 10:38:59;;;;;;;;;;;12.40;99.90;;;;;;5030496;28;19959;-87
2022/09/29 10:41:58;;;;;;;;;;;;;;;;;;;;;
2022/09/29 10:44:57;;;;;;;;;;;;;;;;;;;;;
2022/09/29 10:47:46;;;;;;;;;;;;;;;;;;;;;
2022/09/29 10:53:25;;;;;;;;;;;13.20;99.90;;;;;;5034914;28;19971;-90
2022/09/29 10:56:42;;;;;;;;;;;13.20;99.90;;;;;;5029007;28;19996;-92
2022/09/29 10:59:12;;;;;;;;;;;13.40;99.90;;;;;;5026430;28;19933;-89
2022/09/29 11:02:08;;;;;;;;;;;13.40;99.90;;;;;;5037571;28;20260;-92
2022/09/29 11:05:27;;;;;;;;;;;;;;;;;;;;;
2022/09/29 11:08:01;;;;;;;;;;;13.60;99.90;;;;;;5037076;28;19929;-91
2022/09/29 11:10:32;;;;;;;;;;;13.90;99.90;;;;;;5020463;28;19976;-88
2022/09/29 11:13:34;;;;;;;;;;;;;;;;;;;;;
2022/09/29 11:17:14;;;;;;;;;;;;;;;;;;;;;
2022/09/29 11:22:49;;;;;;;;;;;;;;;;;;;;;
2022/09/29 11:28:53;;;;;;;;;;;;;;;;;;;;;
2022/09/29 11:32:10;;;;;;;;;;;;;;;;;;;;;
2022/09/29 11:35:07;;;;;;;;;;;;;;;;;;;;;
2022/09/29 11:37:58;;;;;;;;;;;;;;;;;;;;;
2022/09/29 11:41:02;;;;;;;;;;;13.90;99.90;;;;;;4947824;29;19927;-88
2022/09/29 11:44:08;;;;;;;;;;;14.90;99.90;;;;;;4970913;28;19971;-89
2022/09/29 11:53:15;;;;;;;;;;;14.80;99.90;;;;;;5031835;28;20110;-89
2022/09/29 11:56:07;;;;;;;;;;;15.00;99.90;;;;;;5023107;28;20015;-89
2022/09/29 11:59:12;;;;;;;;;;;14.50;99.90;;;;;;5020959;28;19967;-90
2022/09/29 12:02:23;;;;;;;;;;;14.90;99.90;;;;;;5021046;28;19929;-89
2022/09/29 12:05:29;;;;;;;;;;;14.50;99.90;;;;;;5029193;28;20364;-90
2022/09/29 12:12:09;;;;;;;;;;;15.00;99.90;;;;;;5032846;28;19925;-91
2022/09/29 12:18:36;;;;;;;;;;;14.50;99.90;;;;;;5038507;28;19925;-93
2022/09/29 12:28:49;;;;;;;;;;;;;;;;;;;;;
2022/09/29 12:45:19;;;;;;;;;;;14.30;99.90;;;;;;5139441;27;19995;-95
2022/09/29 12:48:03;;;;;;;;;;;14.30;99.90;;;;;;5105527;28;20368;-94
2022/09/29 12:50:38;;;;;;;;;;;14.30;99.90;;;;;;5110515;28;19928;-93
2022/09/29 12:53:08;;;;;;;;;;;14.20;99.90;;;;;;5109644;28;19935;-96
2022/09/29 12:55:34;;;;;;;;;;;14.20;99.90;;;;;;5109479;28;19924;-93
2022/09/29 12:58:04;;;;;;;;;;;14.10;99.90;;;;;;5106671;28;19939;-94
2022/09/29 13:00:32;;;;;;;;;;;14.00;99.90;;;;;;5103879;28;19928;-92
2022/09/29 13:03:04;;;;;;;;;;;13.90;99.90;;;;;;5101201;28;19931;-92
2022/09/29 13:05:39;;;;;;;;;;;13.80;99.90;;;;;;5110261;28;19924;-91
2022/09/29 13:08:27;;;;;;;;;;;13.80;99.90;;;;;;5098124;28;19930;-92
2022/09/29 13:10:52;;;;;;;;;;;13.70;99.90;;;;;;5117222;28;19935;-91
2022/09/29 13:13:57;;;;;;;;;;;13.70;99.90;;;;;;5101295;28;19928;-92
2022/09/29 13:16:27;;;;;;;;;;;13.60;99.90;;;;;;5021190;28;20024;-93
2022/09/29 13:19:12;;;;;;;;;;;13.50;99.90;;;;;;5026306;28;19993;-92
2022/09/29 13:21:44;;;;;;;;;;;13.50;99.90;;;;;;5073811;28;19979;-92
2022/09/29 13:24:15;;;;;;;;;;;13.40;99.90;;;;;;5114326;28;19927;-87
2022/09/29 13:26:41;;;;;;;;;;;13.40;99.90;;;;;;5132030;27;20026;-87
2022/09/29 13:29:15;;;;;;;;;;;13.40;99.90;;;;;;5121916;28;20321;-87
2022/09/29 13:31:41;;;;;;;;;;;13.30;99.90;;;;;;5121549;28;19962;-95
2022/09/29 13:34:16;;;;;;;;;;;13.40;99.90;;;;;;5087394;28;20251;-93
2022/09/29 13:36:44;;;;;;;;;;;13.40;99.90;;;;;;5100927;28;20011;-93
2022/09/29 13:39:24;;;;;;;;;;;13.40;99.90;;;;;;5115946;28;19924;-91
2022/09/29 13:41:54;;;;;;;;;;;13.40;99.90;;;;;;5140719;27;20460;-93
2022/09/29 13:44:24;;;;;;;;;;;13.50;99.90;;;;;;5104785;28;19939;-92
2022/09/29 13:46:51;;;;;;;;;;;13.50;99.90;;;;;;5084680;28;19924;-94
2022/09/29 13:49:20;;;;;;;;;;;13.50;99.90;;;;;;5099600;28;19935;-92
2022/09/29 13:51:45;;;;;;;;;;;13.50;99.90;;;;;;5085222;28;19947;-92
2022/09/29 13:54:20;;;;;;;;;;;13.50;99.90;;;;;;5084801;28;19928;-92
2022/09/29 13:56:47;;;;;;;;;;;13.50;99.90;;;;;;5089253;28;19946;-93
2022/09/29 13:59:14;;;;;;;;;;;13.60;99.90;;;;;;5087535;28;19928;-93
2022/09/29 14:01:40;;;;;;;;;;;13.60;99.90;;;;;;5080737;28;19925;-92
2022/09/29 14:04:24;;;;;;;;;;;13.70;99.90;;;;;;5103737;28;20000;-93
2022/09/29 14:06:50;;;;;;;;;;;13.70;99.90;;;;;;5096189;28;19969;-92
2022/09/29 14:09:17;;;;;;;;;;;13.80;99.90;;;;;;5085225;28;19924;-93
2022/09/29 14:11:53;;;;;;;;;;;13.90;99.90;;;;;;5088991;28;19924;-95
2022/09/29 14:14:20;;;;;;;;;;;14.00;99.90;;;;;;5102659;28;19930;-95
2022/09/29 14:17:00;;;;;;;;;;;14.30;99.90;;;;;;5107479;28;19988;-94
2022/09/29 14:19:29;;;;;;;;;;;14.60;99.90;;;;;;5099009;28;19924;-92
2022/09/29 14:22:01;;;;;;;;;;;14.90;99.90;;;;;;5116858;28;20344;-93
2022/09/29 14:24:36;;;;;;;;;;;15.20;99.90;;;;;;5111971;28;19924;-93
2022/09/29 14:27:21;;;;;;;;;;;15.40;99.90;;;;;;5116596;28;19912;-92
2022/09/29 14:29:52;;;;;;;;;;;15.50;99.90;;;;;;5112650;28;19920;-93
2022/09/29 14:32:26;;;;;;;;;;;15.40;99.90;;;;;;5108952;28;19924;-95
2022/09/29 14:34:52;;;;;;;;;;;15.50;99.90;;;;;;5126902;27;19968;-93
2022/09/29 14:37:25;;;;;;;;;;;15.40;99.90;;;;;;5102097;28;20226;-94
2022/09/29 14:42:39;;;;;;;;;;;15.20;99.90;;;;;;5108614;28;20028;-93
2022/09/29 14:54:16;;;;;;;;;;;14.60;99.90;;;;;;5094386;28;19928;-93
2022/09/29 14:56:48;;;;;;;;;;;14.20;99.90;;;;;;5107167;28;19935;-94
2022/09/29 14:59:25;;;;;;;;;;;14.00;99.90;;;;;;5118380;28;19924;-93
2022/09/29 15:02:04;;;;;;;;;;;13.70;99.90;;;;;;5115862;28;19949;-94
2022/09/29 15:04:30;;;;;;;;;;;13.50;99.90;;;;;;5112915;28;19934;-95
2022/09/29 15:06:55;;;;;;;;;;;13.30;99.90;;;;;;5115148;28;19956;-94
2022/09/29 15:09:23;;;;;;;;;;;13.10;99.90;;;;;;5089428;28;19945;-94
2022/09/29 15:11:53;;;;;;;;;;;13.00;99.90;;;;;;5089180;28;19908;-94
2022/09/29 15:14:21;;;;;;;;;;;13.00;99.90;;;;;;5093534;28;19983;-95
2022/09/29 15:17:06;;;;;;;;;;;12.90;99.90;;;;;;5096335;28;19932;-94
2022/09/29 15:19:40;;;;;;;;;;;12.90;99.90;;;;;;5110797;28;19927;-94
2022/09/29 15:22:21;;;;;;;;;;;12.90;99.90;;;;;;5101106;28;19931;-95
2022/09/29 15:24:50;;;;;;;;;;;12.90;99.90;;;;;;5096619;28;19928;-95
2022/09/29 15:27:16;;;;;;;;;;;12.90;99.90;;;;;;5116062;28;19924;-94
2022/09/29 15:29:46;;;;;;;;;;;12.80;99.90;;;;;;5102782;28;19946;-95
2022/09/29 15:32:19;;;;;;;;;;;12.80;99.90;;;;;;5112715;28;19928;-96
2022/09/29 15:34:44;;;;;;;;;;;12.90;99.90;;;;;;5092490;28;19931;-95
2022/09/29 15:37:12;;;;;;;;;;;12.90;99.90;;;;;;5071409;28;19932;-96
2022/09/29 15:39:42;;;;;;;;;;;12.90;99.90;;;;;;5105487;28;19924;-95
2022/09/29 15:42:18;;;;;;;;;;;13.00;99.90;;;;;;5103370;28;19963;-95
2022/09/29 15:45:14;;;;;;;;;;;13.00;99.90;;;;;;5107307;28;19924;-96
2022/09/29 15:47:40;;;;;;;;;;;12.90;99.90;;;;;;5105919;28;19928;-95
2022/09/29 15:50:17;;;;;;;;;;;13.10;99.90;;;;;;5110278;28;19939;-93
2022/09/29 15:52:46;;;;;;;;;;;13.20;99.90;;;;;;5094582;28;19928;-95
2022/09/29 15:55:37;;;;;;;;;;;13.20;99.90;;;;;;5086517;28;19928;-93
2022/09/29 15:58:26;;;;;;;;;;;13.20;99.90;;;;;;5077914;28;19931;-94
2022/09/29 16:01:05;;;;;;;;;;;13.20;99.90;;;;;;5078753;28;19924;-94
2022/09/29 16:03:49;;;;;;;;;;;13.10;99.90;;;;;;5077710;28;19950;-95
2022/09/29 16:06:31;;;;;;;;;;;13.20;99.90;;;;;;5059657;28;19924;-96
2022/09/29 16:09:00;;;;;;;;;;;13.20;99.90;;;;;;5086803;28;19979;-95
2022/09/29 16:11:25;;;;;;;;;;;13.10;99.90;;;;;;5066742;28;19931;-95
2022/09/29 16:13:53;;;;;;;;;;;13.10;99.90;;;;;;5087546;28;19999;-96
2022/09/29 16:16:32;;;;;;;;;;;13.10;99.90;;;;;;5097101;28;19936;-95
2022/09/29 16:19:18;;;;;;;;;;;13.10;99.90;;;;;;5102058;22;19994;-88
2022/09/29 16:22:23;;;;;;;;;;;12.90;99.90;;;;;;5033901;28;19932;-88
2022/09/29 16:28:24;;;;;;;;;;;12.00;99.90;;;;;;5041141;28;20294;-88
2022/09/29 16:31:09;;;;;;;;;;;12.40;99.90;;;;;;5049070;28;19974;-88
2022/09/29 16:33:47;;;;;;;;;;;12.60;99.90;;;;;;5042671;28;19925;-88
2022/09/29 16:36:33;;;;;;;;;;;12.60;99.90;;;;;;5032857;28;20027;-89
2022/09/29 16:39:26;;;;;;;;;;;11.70;99.90;;;;;;5041120;28;20322;-90
2022/09/29 16:45:46;;;;;;;;;;;;;;;;;;;;;
2022/09/29 16:48:21;;;;;;;;;;;12.40;99.90;;;;;;5044269;28;20558;-91
2022/09/29 16:50:55;;;;;;;;;;;12.10;99.90;;;;;;5040916;28;20408;-91
2022/09/29 16:54:04;;;;;;;;;;;;;;;;;;;;;
2022/09/29 16:59:29;;;;;;;;;;;12.10;99.90;;;;;;5034036;28;19925;-90
2022/09/29 17:02:45;;;;;;;;;;;12.10;99.90;;;;;;5037026;28;19925;-89
2022/09/29 17:05:30;;;;;;;;;;;12.00;99.90;;;;;;5032983;28;19925;-91
2022/09/29 17:08:30;;;;;;;;;;;12.30;99.90;;;;;;5044065;28;19940;-91
2022/09/29 17:11:24;;;;;;;;;;;11.60;99.90;;;;;;5046615;28;19932;-91
2022/09/29 17:14:17;;;;;;;;;;;11.80;99.90;;;;;;5029313;28;19925;-90
2022/09/29 17:16:58;;;;;;;;;;;11.70;99.90;;;;;;5047975;28;19925;-88
2022/09/29 17:19:34;;;;;;;;;;;11.70;99.90;;;;;;5037139;28;20437;-88
2022/09/29 17:22:24;;;;;;;;;;;11.60;99.90;;;;;;5034748;28;20370;-88
2022/09/29 17:25:09;;;;;;;;;;;11.60;99.90;;;;;;5037112;28;20339;-89
2022/09/29 17:31:01;;;;;;;;;;;;;;;;;;;;;
2022/09/29 17:34:07;;;;;;;;;;;12.10;99.90;;;;;;5034793;28;19982;-88
2022/09/29 17:37:01;;;;;;;;;;;;;;;;;;;;;
2022/09/29 17:40:09;;;;;;;;;;;;;;;;;;;;;
2022/09/29 17:42:40;;;;;;;;;;;11.30;99.90;;;;;;5039344;28;20032;-88
2022/09/29 17:45:32;;;;;;;;;;;11.20;99.90;;;;;;5030156;28;19925;-88
2022/09/29 17:48:21;;;;;;;;;;;11.10;99.90;;;;;;5038486;28;20341;-88
2022/09/29 17:51:08;;;;;;;;;;;10.20;99.90;;;;;;5034660;28;19967;-89
2022/09/29 17:53:36;;;;;;;;;;;11.00;99.90;;;;;;5031490;28;19982;-88
2022/09/29 17:56:25;;;;;;;;;;;11.10;99.90;;;;;;5031095;28;19925;-90
2022/09/29 18:02:02;;;;;;;;;;;11.10;99.90;;;;;;5046272;28;19925;-89
2022/09/29 18:04:53;;;;;;;;;;;11.10;99.90;;;;;;5050444;28;20432;-88
2022/09/29 18:07:49;;;;;;;;;;;12.30;99.90;;;;;;5019180;28;20019;-88
2022/09/29 18:10:27;;;;;;;;;;;11.00;99.90;;;;;;5047223;28;19925;-87
2022/09/29 18:13:06;;;;;;;;;;;;;;;;;;;;;
2022/09/29 18:15:38;;;;;;;;;;;10.30;99.90;;;;;;5038819;28;19975;-89
2022/09/29 18:18:23;;;;;;;;;;;11.80;99.90;;;;;;5031181;28;19979;-89
2022/09/29 18:21:00;;;;;;;;;;;10.80;99.90;;;;;;5017266;28;20306;-89